Time;durP1;ratioP1;P1;durP2;ratioP2;P2;SDS_P1;SDS_P2;PMS_P1;PMS_P2;Temp;Humidity;BMP_temperature;BMP_pressure;BME280_temperature;BME280_humidity;BME280_pressure;Samples;Min_cycle;Max_cycle;Signal;HPM_P1;HPM_P2
2021/12/12 00:01:03;;;;;;;;;17.75;13.25;;;;;7.23;76.45;101463.56;5041822;28;45387;-83
2021/12/12 00:03:37;;;;;;;;;12.50;7.00;;;;;7.22;77.60;101461.78;5033255;28;45431;-82
2021/12/12 00:06:29;;;;;;;;;11.75;9.75;;;;;7.20;77.74;101457.41;5035156;28;45524;-82
2021/12/12 00:08:59;;;;;;;;;8.25;6.25;;;;;7.08;77.59;101452.91;5030233;28;45542;-81
2021/12/12 00:11:29;;;;;;;;;12.00;8.00;;;;;6.90;78.37;101433.47;5013532;28;46058;-82
2021/12/12 00:14:00;;;;;;;;;10.00;7.50;;;;;6.98;79.73;101451.06;5031378;28;45356;-82
2021/12/12 00:16:27;;;;;;;;;8.75;6.50;;;;;6.92;80.09;101450.16;5033861;28;45677;-81
2021/12/12 00:18:52;;;;;;;;;9.00;8.50;;;;;6.87;80.07;101451.84;5034606;28;45532;-80
2021/12/12 00:21:21;;;;;;;;;8.00;6.00;;;;;6.81;80.00;101449.16;5034835;28;46218;-82
2021/12/12 00:23:47;;;;;;;;;12.25;9.75;;;;;6.74;81.53;101444.72;5033706;28;45380;-82
2021/12/12 00:26:13;;;;;;;;;12.00;12.00;;;;;6.70;81.11;101437.69;5035521;28;45483;-80
2021/12/12 00:28:39;;;;;;;;;12.00;7.50;;;;;6.67;81.33;101440.28;5019271;28;45534;-81
2021/12/12 00:31:10;;;;;;;;;14.00;13.00;;;;;6.60;82.13;101433.19;5036052;28;45557;-82
2021/12/12 00:33:54;;;;;;;;;14.50;12.25;;;;;6.60;82.58;101438.44;5021347;28;45277;-81
2021/12/12 00:36:22;;;;;;;;;13.25;13.00;;;;;6.58;83.31;101447.19;5016616;28;45314;-81
2021/12/12 00:38:54;;;;;;;;;8.75;7.00;;;;;6.52;83.06;101441.00;5026767;28;45542;-81
2021/12/12 00:41:33;;;;;;;;;10.50;10.50;;;;;6.49;84.03;101447.09;5034279;28;46242;-81
2021/12/12 00:44:01;;;;;;;;;13.50;9.25;;;;;6.48;83.56;101445.31;5017021;28;46021;-80
2021/12/12 00:46:28;;;;;;;;;15.00;9.00;;;;;6.46;83.68;101449.69;5038371;28;45492;-81
2021/12/12 00:48:55;;;;;;;;;8.25;4.50;;;;;6.41;84.07;101451.41;5015579;28;45430;-80
2021/12/12 00:51:26;;;;;;;;;13.00;11.50;;;;;6.39;84.01;101450.47;5038354;28;45487;-81
2021/12/12 00:53:54;;;;;;;;;15.25;11.00;;;;;6.37;84.78;101441.72;5018170;28;45436;-80
2021/12/12 00:56:20;;;;;;;;;18.00;17.00;;;;;6.40;84.90;101447.00;5016842;28;45536;-81
2021/12/12 00:58:45;;;;;;;;;12.75;11.00;;;;;6.44;84.74;101454.06;5020478;28;45394;-83
2021/12/12 01:01:22;;;;;;;;;9.50;7.50;;;;;6.38;85.10;101448.75;5039541;28;45430;-81
2021/12/12 01:03:58;;;;;;;;;9.75;6.25;;;;;6.43;85.84;101449.66;5043798;28;45628;-83
2021/12/12 01:06:25;;;;;;;;;13.50;11.00;;;;;6.33;85.19;101425.06;5040969;28;45465;-81
2021/12/12 01:08:53;;;;;;;;;8.00;8.00;;;;;6.36;85.13;101425.09;5039717;28;45436;-81
2021/12/12 01:11:34;;;;;;;;;14.00;10.00;;;;;6.41;85.52;101438.25;5021657;28;45418;-81
2021/12/12 01:14:06;;;;;;;;;9.75;9.75;;;;;6.41;85.02;101430.38;5020187;28;45481;-81
2021/12/12 01:16:37;;;;;;;;;9.25;7.50;;;;;6.42;86.39;101433.88;5018674;28;45454;-80
2021/12/12 01:19:17;;;;;;;;;9.25;9.25;;;;;6.45;86.09;101432.16;5037667;28;45558;-80
2021/12/12 01:21:52;;;;;;;;;7.25;7.25;;;;;6.46;85.13;101426.06;5036331;28;46108;-81
2021/12/12 01:24:30;;;;;;;;;9.25;6.25;;;;;6.46;85.87;101426.06;5036189;28;45468;-80
2021/12/12 01:26:57;;;;;;;;;13.50;8.00;;;;;6.48;86.38;101423.44;5030345;28;45364;-81
2021/12/12 01:29:22;;;;;;;;;9.00;7.00;;;;;6.45;85.82;101424.28;5037179;28;45672;-82
2021/12/12 01:31:49;;;;;;;;;10.75;10.75;;;;;6.41;86.61;101422.50;5016304;28;45372;-81
2021/12/12 01:34:20;;;;;;;;;7.75;7.75;;;;;6.45;85.86;101429.53;5041211;28;45371;-80
2021/12/12 01:37:42;;;;;;;;;6.25;6.25;;;;;6.49;86.59;101443.59;5043068;28;45551;-81
2021/12/12 01:39:44;;;;;;;;;14.00;8.00;;;;;6.49;86.76;101446.22;5020062;28;45511;-80
2021/12/12 01:42:17;;;;;;;;;5.00;5.00;;;;;6.49;85.99;101441.84;5035062;28;46490;-81
2021/12/12 01:45:01;;;;;;;;;8.00;4.50;;;;;6.51;86.84;101448.00;5037694;28;45446;-81
2021/12/12 01:47:37;;;;;;;;;9.50;6.25;;;;;6.52;85.94;101448.88;5035426;28;45508;-82
2021/12/12 01:50:28;;;;;;;;;1.00;0.00;;;;;6.52;86.04;101449.75;5024956;28;45404;-81
2021/12/12 01:52:54;;;;;;;;;3.50;3.50;;;;;6.50;86.94;101448.88;5013679;28;46402;-81
2021/12/12 01:55:26;;;;;;;;;7.25;6.25;;;;;6.43;87.08;101441.78;5016765;28;45644;-80
2021/12/12 01:57:56;;;;;;;;;10.50;9.00;;;;;6.50;87.33;101451.50;5026922;28;45462;-80
2021/12/12 02:00:33;;;;;;;;;6.00;6.00;;;;;6.50;87.28;101455.84;5036810;28;45514;-82
2021/12/12 02:03:00;;;;;;;;;11.00;7.50;;;;;6.52;87.17;101462.88;5039973;28;46064;-82
2021/12/12 02:05:28;;;;;;;;;6.00;6.00;;;;;6.53;86.75;101462.03;5043989;28;45355;-82
2021/12/12 02:08:03;;;;;;;;;9.00;8.00;;;;;6.57;87.17;101466.47;5036933;28;45380;-81
2021/12/12 02:10:35;;;;;;;;;4.75;4.00;;;;;6.54;86.69;101458.56;5035324;28;45552;-81
2021/12/12 02:13:07;;;;;;;;;7.50;6.00;;;;;6.60;87.24;101478.72;5036318;28;45504;-82
2021/12/12 02:15:35;;;;;;;;;6.25;6.25;;;;;6.56;86.83;101462.06;5035924;28;45471;-80
2021/12/12 02:18:08;;;;;;;;;4.00;3.00;;;;;6.61;86.97;101471.75;5036559;28;45615;-81
2021/12/12 02:20:44;;;;;;;;;4.50;4.50;;;;;6.62;86.47;101473.50;5019324;28;45473;-82
2021/12/12 02:23:22;;;;;;;;;4.00;4.00;;;;;6.61;86.97;101467.38;5036144;28;46263;-81
2021/12/12 02:36:55;;;;;;;;;4.00;4.00;;;;;6.67;87.58;101482.31;5027636;28;45390;-82
2021/12/12 02:39:21;;;;;;;;;11.50;6.50;;;;;6.72;87.34;101486.72;5036142;28;45470;-76
2021/12/12 02:41:49;;;;;;;;;6.25;4.50;;;;;6.76;87.22;101495.56;5035351;28;45368;-77
2021/12/12 02:44:18;;;;;;;;;6.00;4.00;;;;;6.79;88.06;101499.94;5021708;28;46519;-75
2021/12/12 02:46:45;;;;;;;;;4.50;4.50;;;;;6.81;87.40;101495.59;5036633;28;45422;-76
2021/12/12 02:49:39;;;;;;;;;3.75;3.75;;;;;6.81;87.64;101491.22;5034088;28;45403;-76
2021/12/12 02:52:13;;;;;;;;;6.00;6.00;;;;;6.83;87.29;101497.38;5034950;28;45295;-74
2021/12/12 02:54:39;;;;;;;;;4.75;4.00;;;;;6.85;87.76;101494.78;5034443;28;45407;-76
2021/12/12 02:57:05;;;;;;;;;8.75;7.00;;;;;6.84;87.58;101503.50;5016134;28;45395;-76
2021/12/12 02:59:31;;;;;;;;;5.25;3.00;;;;;6.88;88.09;101502.69;5035214;28;45415;-76
2021/12/12 03:02:05;;;;;;;;;3.75;3.75;;;;;6.90;87.41;101495.69;5034181;28;45474;-75
2021/12/12 03:04:32;;;;;;;;;4.00;4.00;;;;;6.90;87.66;101491.28;5034908;28;46038;-76
2021/12/12 03:06:59;;;;;;;;;3.50;3.50;;;;;6.93;88.39;101496.59;5036272;28;45339;-76
2021/12/12 03:09:36;;;;;;;;;4.00;4.00;;;;;6.89;87.76;101492.19;5031316;28;45443;-76
2021/12/12 03:12:12;;;;;;;;;1.00;1.00;;;;;6.93;87.77;101498.34;5015323;28;45526;-75
2021/12/12 03:14:40;;;;;;;;;3.00;3.00;;;;;6.93;87.84;101493.97;5015212;28;45401;-78
2021/12/12 03:17:11;;;;;;;;;3.75;3.50;;;;;6.96;87.71;101501.00;5020140;28;45379;-77
2021/12/12 03:19:37;;;;;;;;;3.00;3.00;;;;;6.98;87.81;101506.25;5016309;28;45490;-77
2021/12/12 03:22:08;;;;;;;;;3.00;3.00;;;;;7.00;87.71;101501.91;5034221;28;45446;-76
2021/12/12 03:24:34;;;;;;;;;4.00;3.25;;;;;6.96;87.21;101481.72;5017946;28;46256;-75
2021/12/12 03:27:01;;;;;;;;;1.00;1.00;;;;;7.04;87.75;101498.44;5030341;28;45482;-80
2021/12/12 03:29:28;;;;;;;;;1.00;1.00;;;;;7.04;87.35;101501.06;5034156;28;45405;-81
2021/12/12 03:32:03;;;;;;;;;3.00;3.00;;;;;7.06;87.88;101499.31;5035392;28;45550;-80
2021/12/12 03:34:35;;;;;;;;;2.00;2.00;;;;;6.99;87.57;101490.50;5036531;28;45438;-82
2021/12/12 03:37:05;;;;;;;;;3.00;3.00;;;;;7.09;87.36;101501.97;5036400;28;45434;-81
2021/12/12 03:39:37;;;;;;;;;2.00;2.00;;;;;7.15;87.19;101511.69;5042109;28;45374;-81
2021/12/12 03:42:08;;;;;;;;;5.75;3.00;;;;;7.15;87.55;101506.41;5019852;28;45435;-81
2021/12/12 03:44:38;;;;;;;;;5.50;5.50;;;;;7.13;87.42;101503.78;5034592;28;46512;-82
2021/12/12 03:47:16;;;;;;;;;3.50;2.75;;;;;7.17;87.75;101505.56;5016427;28;45319;-81
2021/12/12 03:49:43;;;;;;;;;1.50;1.50;;;;;7.16;87.04;101501.19;5033963;28;45519;-81
2021/12/12 03:52:12;;;;;;;;;5.50;3.75;;;;;7.18;87.35;101507.34;5034519;28;45628;-82
2021/12/12 03:54:39;;;;;;;;;1.50;1.00;;;;;7.19;87.14;101508.22;5034831;28;45380;-80
2021/12/12 03:57:05;;;;;;;;;3.75;3.75;;;;;7.18;87.35;101502.09;5027897;28;45538;-82
2021/12/12 03:59:31;;;;;;;;;4.00;4.00;;;;;7.24;87.27;101510.03;5035573;28;45499;-82
2021/12/12 04:01:57;;;;;;;;;1.75;1.75;;;;;7.24;86.54;101502.13;5035364;28;45606;-81
2021/12/12 04:04:49;;;;;;;;;4.50;4.50;;;;;7.24;86.40;101507.41;5035984;28;46628;-75
2021/12/12 04:07:20;;;;;;;;;6.00;3.50;;;;;7.19;87.63;101501.19;5029325;28;45396;-75
2021/12/12 04:09:46;;;;;;;;;6.50;4.75;;;;;7.23;87.40;101500.38;5036878;28;45478;-76
2021/12/12 04:12:15;;;;;;;;;8.50;6.25;;;;;7.23;87.11;101499.50;5034935;28;45585;-76
2021/12/12 04:14:43;;;;;;;;;11.50;6.75;;;;;7.26;88.01;101510.91;5034750;28;46116;-75
2021/12/12 04:17:13;;;;;;;;;7.75;7.00;;;;;7.27;87.75;101507.44;5027249;28;45376;-76
2021/12/12 04:19:40;;;;;;;;;7.00;6.50;;;;;7.30;87.57;101506.53;5028579;28;45394;-76
2021/12/12 04:22:06;;;;;;;;;7.25;5.00;;;;;7.31;87.57;101518.84;5031319;28;45309;-76
2021/12/12 04:24:36;;;;;;;;;8.00;6.00;;;;;7.27;87.64;101515.31;5033870;28;45322;-76
2021/12/12 04:27:03;;;;;;;;;3.50;3.25;;;;;7.31;87.52;101521.47;5030193;28;45449;-76
2021/12/12 04:29:39;;;;;;;;;9.00;6.50;;;;;7.32;86.65;101528.50;5032530;28;45429;-78
2021/12/12 04:32:09;;;;;;;;;10.50;6.75;;;;;7.34;88.01;101523.25;5032508;28;45469;-76
2021/12/12 04:34:39;;;;;;;;;7.25;6.25;;;;;7.24;87.58;101515.28;5016004;28;45505;-76
2021/12/12 04:37:06;;;;;;;;;9.00;6.25;;;;;7.32;87.73;101530.22;5028892;28;45539;-76
2021/12/12 04:39:36;;;;;;;;;5.50;5.50;;;;;7.36;86.57;101526.75;5034660;28;45522;-76
2021/12/12 04:42:10;;;;;;;;;12.25;7.50;;;;;7.35;87.06;101536.41;5017221;28;45352;-76
2021/12/12 04:44:38;;;;;;;;;8.25;4.75;;;;;7.37;87.77;101533.78;5034244;28;46301;-76
2021/12/12 04:50:15;;;;;;;;;5.75;5.75;;;;;7.37;87.03;101531.16;5033628;28;45431;-76
2021/12/12 04:52:48;;;;;;;;;12.75;9.50;;;;;7.37;87.58;101531.16;5033347;28;45558;-77
2021/12/12 04:55:34;;;;;;;;;7.00;7.00;;;;;7.39;88.36;101539.94;5033177;28;45566;-76
2021/12/12 04:58:21;;;;;;;;;10.75;9.50;;;;;7.42;87.92;101542.59;5032561;28;45411;-76
2021/12/12 05:00:51;;;;;;;;;9.50;7.75;;;;;7.41;87.62;101553.97;5033287;28;45440;-75
2021/12/12 05:03:28;;;;;;;;;11.00;9.00;;;;;7.44;87.59;101546.16;5033649;28;45497;-76
2021/12/12 05:06:21;;;;;;;;;10.25;8.50;;;;;7.45;87.52;101550.50;5033614;28;46112;-74
2021/12/12 05:08:52;;;;;;;;;8.50;8.50;;;;;7.46;88.50;101552.28;5015381;28;45396;-76
2021/12/12 05:11:24;;;;;;;;;10.50;8.50;;;;;7.41;88.33;101546.09;5014377;28;45461;-75
2021/12/12 05:13:55;;;;;;;;;12.00;9.00;;;;;7.47;87.41;101552.31;5033084;28;45538;-76
2021/12/12 05:16:26;;;;;;;;;10.00;9.75;;;;;7.47;87.67;101557.56;5032003;28;45465;-76
2021/12/12 05:19:06;;;;;;;;;15.25;10.50;;;;;7.43;88.33;101552.25;5035373;28;45324;-76
2021/12/12 05:21:38;;;;;;;;;9.00;9.00;;;;;7.49;87.28;101551.44;5033077;28;45470;-77
2021/12/12 05:24:09;;;;;;;;;15.25;9.50;;;;;7.49;88.38;101549.69;5013303;28;45455;-75
2021/12/12 05:26:49;;;;;;;;;11.25;10.00;;;;;7.52;88.47;101554.97;5012519;28;45520;-77
2021/12/12 05:29:34;;;;;;;;;9.00;7.00;;;;;7.53;88.31;101551.47;5012803;28;45498;-77
2021/12/12 05:32:02;;;;;;;;;11.75;9.00;;;;;7.56;88.00;101561.13;5017979;28;45404;-76
2021/12/12 05:34:31;;;;;;;;;6.75;6.75;;;;;7.56;87.91;101562.03;5036203;28;45617;-76
2021/12/12 05:37:01;;;;;;;;;8.25;7.25;;;;;7.57;87.91;101566.41;5032462;28;46077;-76
2021/12/12 05:39:31;;;;;;;;;9.00;7.00;;;;;7.56;88.03;101562.03;5035866;28;45395;-76
2021/12/12 05:41:57;;;;;;;;;8.00;5.00;;;;;7.59;88.54;101574.31;5036544;28;45463;-75
2021/12/12 05:44:24;;;;;;;;;8.50;7.50;;;;;7.58;88.35;101565.53;5036513;28;45606;-76
2021/12/12 05:46:54;;;;;;;;;8.50;6.25;;;;;7.59;88.08;101569.94;5018784;28;45394;-77
2021/12/12 05:49:19;;;;;;;;;14.25;11.75;;;;;7.60;88.23;101568.19;5029337;28;45441;-76
2021/12/12 05:51:45;;;;;;;;;10.75;7.50;;;;;7.59;87.53;101567.31;5016317;28;45571;-76
2021/12/12 05:54:10;;;;;;;;;8.75;8.75;;;;;7.64;88.28;101577.88;4998262;28;45547;-76
2021/12/12 05:56:38;;;;;;;;;13.75;9.25;;;;;7.64;88.74;101584.00;5015622;28;46031;-75
2021/12/12 05:59:05;;;;;;;;;12.50;9.00;;;;;7.64;88.39;101584.00;5020722;28;45550;-76
2021/12/12 06:01:31;;;;;;;;;9.00;6.25;;;;;7.68;88.59;101591.91;5035276;28;45452;-76
2021/12/12 06:03:58;;;;;;;;;11.25;10.25;;;;;7.67;88.28;101590.16;5036240;28;45322;-76
2021/12/12 06:06:27;;;;;;;;;9.00;9.00;;;;;7.71;88.15;101590.19;5034390;28;45748;-76
2021/12/12 06:08:56;;;;;;;;;13.25;7.00;;;;;7.72;88.34;101591.97;5016445;28;45458;-76
2021/12/12 06:11:23;;;;;;;;;6.75;6.75;;;;;7.72;87.87;101583.19;5017353;28;45422;-76
2021/12/12 06:13:50;;;;;;;;;7.75;6.00;;;;;7.72;88.46;101577.94;5038188;28;45500;-76
2021/12/12 06:16:19;;;;;;;;;13.00;9.50;;;;;7.71;88.14;101587.56;5037936;28;46255;-76
2021/12/12 06:18:51;;;;;;;;;13.50;9.75;;;;;7.72;88.01;101589.31;5035528;28;45372;-76
2021/12/12 06:21:17;;;;;;;;;9.75;9.75;;;;;7.74;88.33;101599.88;5035915;28;45367;-77
2021/12/12 06:23:43;;;;;;;;;6.00;5.00;;;;;7.75;87.77;101620.94;5035744;28;45462;-77
2021/12/12 06:26:09;;;;;;;;;11.25;9.75;;;;;7.76;88.11;101611.31;5035405;28;45526;-76
2021/12/12 06:28:39;;;;;;;;;7.75;5.50;;;;;7.80;87.76;101608.72;5033952;28;45541;-76
2021/12/12 06:31:05;;;;;;;;;0.25;0.25;;;;;7.78;87.93;101610.44;5035991;28;45522;-76
2021/12/12 06:33:32;;;;;;;;;7.25;6.50;;;;;7.80;88.67;101605.19;5035250;28;45408;-77
2021/12/12 06:35:58;;;;;;;;;10.25;7.25;;;;;7.81;88.39;101617.47;5034783;28;46778;-76
2021/12/12 06:38:24;;;;;;;;;10.25;5.50;;;;;7.80;88.71;101613.06;5035035;28;45608;-75
2021/12/12 06:40:51;;;;;;;;;11.25;7.00;;;;;7.82;87.87;101616.63;5037481;28;45356;-76
2021/12/12 06:43:19;;;;;;;;;7.50;6.00;;;;;7.82;88.76;101606.97;5017674;28;45478;-77
2021/12/12 06:45:46;;;;;;;;;6.50;6.50;;;;;7.81;89.35;101599.06;5034028;28;45471;-77
2021/12/12 06:48:13;;;;;;;;;6.50;6.50;;;;;7.81;89.14;101610.44;5037291;28;45589;-77
2021/12/12 06:50:41;;;;;;;;;3.00;1.00;;;;;7.80;88.80;101613.97;5036849;28;45253;-77
2021/12/12 06:53:08;;;;;;;;;10.25;8.25;;;;;7.86;88.76;101615.75;5034832;28;45414;-77
2021/12/12 06:55:36;;;;;;;;;8.50;6.00;;;;;7.87;88.84;101625.41;5034860;28;45488;-76
2021/12/12 06:58:05;;;;;;;;;7.00;6.25;;;;;7.89;88.39;101620.16;5033168;28;45486;-76
2021/12/12 07:00:32;;;;;;;;;7.00;4.00;;;;;7.87;89.07;101632.44;5034225;28;45566;-77
2021/12/12 07:02:57;;;;;;;;;9.00;6.50;;;;;7.87;89.21;101633.31;5034271;28;45554;-76
2021/12/12 07:05:27;;;;;;;;;5.50;4.50;;;;;7.94;88.42;101643.03;5035309;28;46767;-77
2021/12/12 07:07:54;;;;;;;;;7.00;4.25;;;;;7.89;88.52;101631.56;5032502;28;45414;-77
2021/12/12 07:10:22;;;;;;;;;4.50;4.00;;;;;7.94;88.70;101639.50;5035202;28;45400;-76
2021/12/12 07:12:55;;;;;;;;;2.50;2.00;;;;;7.95;88.75;101644.78;5034933;28;45319;-76
2021/12/12 07:15:21;;;;;;;;;6.75;4.00;;;;;7.97;88.83;101648.31;5033576;28;46118;-76
2021/12/12 07:17:47;;;;;;;;;8.75;6.50;;;;;7.94;88.34;101645.66;5035827;28;45344;-78
2021/12/12 07:20:13;;;;;;;;;2.00;2.00;;;;;7.95;88.17;101643.91;5036150;28;45351;-77
2021/12/12 07:22:39;;;;;;;;;8.75;6.25;;;;;7.97;88.15;101650.06;5035065;28;45498;-78
2021/12/12 07:25:07;;;;;;;;;4.25;2.75;;;;;7.99;89.24;101657.09;5035025;28;46108;-78
2021/12/12 07:27:33;;;;;;;;;9.00;6.75;;;;;7.97;88.91;101648.31;5031060;28;45511;-77
2021/12/12 07:30:00;;;;;;;;;3.00;3.00;;;;;8.04;88.67;101661.53;5033702;28;45367;-78
2021/12/12 07:32:26;;;;;;;;;4.00;4.00;;;;;8.02;88.81;101661.53;5034422;28;45465;-76
2021/12/12 07:34:52;;;;;;;;;4.00;3.75;;;;;8.03;89.29;101659.75;5035209;28;46531;-76
2021/12/12 07:37:18;;;;;;;;;3.75;3.75;;;;;8.04;89.15;101661.53;5034415;28;45364;-76
2021/12/12 07:39:45;;;;;;;;;1.00;1.00;;;;;8.06;88.52;101662.41;5034876;28;45455;-77
2021/12/12 07:42:14;;;;;;;;;6.00;5.00;;;;;8.04;88.79;101664.16;5034421;28;45466;-76
2021/12/12 07:44:40;;;;;;;;;15.25;10.00;;;;;8.08;88.75;101671.22;5016464;28;46185;-76
2021/12/12 07:47:09;;;;;;;;;8.50;8.00;;;;;8.08;89.23;101674.72;5033590;28;45415;-76
2021/12/12 07:49:43;;;;;;;;;3.50;3.50;;;;;8.09;89.17;101672.97;5019869;28;45482;-77
2021/12/12 07:52:13;;;;;;;;;9.00;5.00;;;;;8.05;88.31;101664.19;5035869;28;45361;-77
2021/12/12 07:54:39;;;;;;;;;6.50;4.00;;;;;8.07;88.25;101666.81;5017234;28;48091;-76
2021/12/12 07:57:06;;;;;;;;;6.50;6.50;;;;;8.12;88.82;101675.63;5029556;28;45524;-77
2021/12/12 07:59:36;;;;;;;;;6.00;4.00;;;;;8.15;88.60;101673.91;5015451;28;45384;-77
2021/12/12 08:02:03;;;;;;;;;3.50;3.50;;;;;8.17;88.30;101673.94;5017768;28;45358;-77
2021/12/12 08:04:32;;;;;;;;;4.00;4.00;;;;;8.19;88.86;101685.34;5033252;28;45474;-77
2021/12/12 08:07:00;;;;;;;;;9.25;5.00;;;;;8.13;88.33;101673.00;5036549;28;45537;-82
2021/12/12 08:09:27;;;;;;;;;5.50;5.50;;;;;8.22;88.36;101680.09;5035525;28;45517;-82
2021/12/12 08:11:54;;;;;;;;;7.50;3.75;;;;;8.22;88.60;101680.09;5031383;28;45807;-82
2021/12/12 08:14:24;;;;;;;;;4.25;4.25;;;;;8.20;88.29;101671.31;5016150;28;46775;-82
2021/12/12 08:16:51;;;;;;;;;9.25;5.00;;;;;8.29;88.50;101689.81;5033446;28;45426;-77
2021/12/12 08:19:19;;;;;;;;;3.75;3.00;;;;;8.33;88.60;101688.94;5023753;28;45431;-76
2021/12/12 08:21:46;;;;;;;;;7.00;3.50;;;;;8.35;88.71;101688.94;5014423;28;45463;-76
2021/12/12 08:24:13;;;;;;;;;4.50;3.50;;;;;8.36;88.48;101691.59;5033966;28;46404;-77
2021/12/12 08:26:43;;;;;;;;;3.00;1.00;;;;;8.44;87.47;101693.44;5034272;28;45495;-82
2021/12/12 08:29:11;;;;;;;;;5.00;4.00;;;;;8.45;88.10;101689.94;5034848;28;45395;-82
2021/12/12 08:31:38;;;;;;;;;1.25;1.25;;;;;8.48;87.86;101692.59;5034156;28;45736;-82
2021/12/12 08:34:06;;;;;;;;;7.00;3.00;;;;;8.44;87.98;101682.91;5033362;28;45428;-80
2021/12/12 08:36:35;;;;;;;;;6.25;4.50;;;;;8.53;87.25;101691.78;5033510;28;45379;-80
2021/12/12 08:39:03;;;;;;;;;6.75;3.00;;;;;8.59;86.94;101698.81;5017223;28;45497;-82
2021/12/12 08:41:32;;;;;;;;;4.25;3.25;;;;;8.62;87.28;101701.47;5017374;28;45490;-80
2021/12/12 08:43:58;;;;;;;;;6.50;5.00;;;;;8.58;87.33;101682.97;5016985;28;47582;-77
2021/12/12 08:46:24;;;;;;;;;5.25;5.00;;;;;8.70;86.75;101705.03;5034355;28;45513;-82
2021/12/12 08:48:52;;;;;;;;;2.25;2.25;;;;;8.76;86.95;101708.56;4997726;28;45530;-82
2021/12/12 08:51:29;;;;;;;;;4.75;3.50;;;;;8.79;87.21;101703.31;5017638;28;45553;-81
2021/12/12 08:54:01;;;;;;;;;4.00;4.00;;;;;8.80;86.83;101705.09;5039684;28;45574;-82
2021/12/12 08:56:50;;;;;;;;;5.75;4.25;;;;;8.86;86.71;101705.13;5030369;28;45312;-81
2021/12/12 08:59:22;;;;;;;;;4.50;2.75;;;;;8.91;86.35;101713.91;5040592;28;45795;-83
2021/12/12 09:01:50;;;;;;;;;8.00;2.00;;;;;8.93;86.12;101706.00;5042888;28;45297;-82
2021/12/12 09:04:16;;;;;;;;;4.00;2.00;;;;;8.94;86.08;101708.66;5041594;28;45415;-81
2021/12/12 09:06:55;;;;;;;;;2.00;2.00;;;;;8.98;86.05;101709.56;5036585;28;45454;-80
2021/12/12 09:09:24;;;;;;;;;7.50;6.00;;;;;9.00;85.45;101715.72;5038902;28;45478;-83
2021/12/12 09:12:01;;;;;;;;;7.00;4.75;;;;;9.05;85.87;101728.06;5038727;28;45602;-83
2021/12/12 09:14:32;;;;;;;;;4.75;3.25;;;;;9.18;85.41;101722.84;5039019;28;45494;-83
2021/12/12 09:17:06;;;;;;;;;7.25;4.00;;;;;9.24;84.79;101728.13;5040997;28;45475;-83
2021/12/12 09:19:42;;;;;;;;;5.50;4.50;;;;;9.31;84.77;101735.22;5044198;28;45491;-84
2021/12/12 09:22:30;;;;;;;;;3.75;2.50;;;;;9.36;84.65;101736.09;5046525;28;45324;-83
2021/12/12 09:25:05;;;;;;;;;2.00;2.00;;;;;9.34;84.31;101729.94;5006595;28;45514;-82
2021/12/12 09:27:44;;;;;;;;;7.00;3.00;;;;;9.35;84.24;101729.06;5029157;28;45454;-82
2021/12/12 09:30:15;;;;;;;;;3.00;3.00;;;;;9.36;84.52;101717.63;5018615;28;45535;-80
2021/12/12 09:32:58;;;;;;;;;4.75;2.00;;;;;9.49;84.53;101733.50;5024511;28;45467;-80
2021/12/12 09:35:37;;;;;;;;;0.00;0.00;;;;;9.56;83.94;101730.88;5019323;28;45460;-81
2021/12/12 09:38:25;;;;;;;;;4.50;4.00;;;;;9.61;84.12;101733.56;5017924;28;45495;-78
2021/12/12 09:41:20;;;;;;;;;5.00;5.00;;;;;9.64;84.04;101720.34;5016543;28;45369;-77
2021/12/12 09:44:08;;;;;;;;;4.00;4.00;;;;;9.66;84.25;101721.22;5001783;28;45587;-74
2021/12/12 09:47:24;;;;;;;;;3.00;2.00;;;;;9.62;84.62;101719.44;5024156;28;45731;-75
2021/12/12 09:53:28;;;;;;;;;5.75;4.50;;;;;9.78;84.92;101731.81;5032158;28;45427;-80
2021/12/12 09:56:17;;;;;;;;;6.25;6.25;;;;;9.84;84.57;101728.31;5027228;28;45371;-80
2021/12/12 09:58:52;;;;;;;;;5.25;5.25;;;;;9.88;84.49;101731.81;5025549;28;45370;-75
2021/12/12 10:01:52;;;;;;;;;4.25;4.00;;;;;9.99;84.27;101734.47;5026186;28;45543;-76
2021/12/12 10:04:27;;;;;;;;;5.00;2.00;;;;;10.02;83.83;101731.81;5010670;28;45609;-76
2021/12/12 10:07:04;;;;;;;;;4.00;4.00;;;;;10.09;83.36;101737.09;5024737;28;45581;-75
2021/12/12 10:09:38;;;;;;;;;4.00;4.00;;;;;10.16;83.15;101731.81;5025392;28;45365;-73
2021/12/12 10:12:12;;;;;;;;;5.25;3.75;;;;;10.14;82.73;101730.09;5032280;28;45439;-78
2021/12/12 10:14:59;;;;;;;;;10.25;5.00;;;;;10.20;82.36;101733.59;5025916;28;45517;-75
2021/12/12 10:17:36;;;;;;;;;3.50;3.50;;;;;10.23;82.32;101731.84;5027279;28;45459;-81
2021/12/12 10:20:25;;;;;;;;;4.00;4.00;;;;;10.32;82.43;101730.94;5035899;28;45324;-80
2021/12/12 10:23:15;;;;;;;;;8.75;5.50;;;;;10.37;81.82;101726.59;5027900;28;45483;-80
2021/12/12 10:25:53;;;;;;;;;4.75;4.00;;;;;10.41;81.06;101732.75;5035551;28;45301;-80
2021/12/12 10:28:27;;;;;;;;;6.00;6.00;;;;;10.36;81.41;101727.47;5035079;28;45450;-82
2021/12/12 10:31:00;;;;;;;;;7.00;7.00;;;;;10.47;81.31;101738.03;5021343;28;45336;-82
2021/12/12 10:33:43;;;;;;;;;7.00;4.00;;;;;10.53;81.11;101735.38;5029551;28;45353;-78
2021/12/12 10:36:19;;;;;;;;;7.00;5.00;;;;;10.60;81.15;101731.84;5030605;28;45404;-85
2021/12/12 10:38:57;;;;;;;;;8.50;6.00;;;;;10.72;80.81;101737.97;5016534;28;45357;-81
2021/12/12 10:41:28;;;;;;;;;4.00;2.50;;;;;10.82;80.25;101735.28;5020854;28;45999;-82
2021/12/12 10:44:10;;;;;;;;;8.25;5.00;;;;;10.95;80.13;101735.28;5025161;28;45462;-75
2021/12/12 10:46:47;;;;;;;;;4.25;4.00;;;;;11.04;79.61;101740.56;5023848;28;45489;-76
2021/12/12 10:49:57;;;;;;;;;5.00;4.00;;;;;11.12;79.27;101732.56;5033964;28;45536;-77
2021/12/12 10:52:37;;;;;;;;;5.00;5.00;;;;;11.15;79.13;101730.78;4982228;28;45619;-77
2021/12/12 10:55:38;;;;;;;;;4.50;3.50;;;;;11.20;78.88;101734.31;4984575;28;45499;-77
2021/12/12 10:58:03;;;;;;;;;4.50;4.25;;;;;11.25;78.66;101738.69;4981451;28;45381;-75
2021/12/12 11:00:39;;;;;;;;;9.25;4.75;;;;;11.26;78.76;101733.38;4973360;28;45424;-77
2021/12/12 11:03:06;;;;;;;;;3.50;3.50;;;;;11.27;78.87;101739.59;4974230;28;46363;-77
2021/12/12 11:05:45;;;;;;;;;9.50;8.00;;;;;11.27;78.60;101734.28;4971624;28;45557;-77
2021/12/12 11:08:10;;;;;;;;;4.50;4.50;;;;;11.29;78.39;101735.16;4972989;28;45393;-76
2021/12/12 11:10:39;;;;;;;;;5.00;5.00;;;;;11.30;78.51;101742.22;4990904;28;45567;-77
2021/12/12 11:13:32;;;;;;;;;7.00;5.00;;;;;11.28;78.36;101738.66;4992555;28;47190;-76
2021/12/12 11:16:17;;;;;;;;;7.75;6.50;;;;;11.28;78.51;101736.03;4976786;28;45556;-77
2021/12/12 11:18:48;;;;;;;;;6.25;5.50;;;;;11.30;78.54;101736.91;4976153;28;45588;-77
2021/12/12 11:21:32;;;;;;;;;8.50;4.75;;;;;11.31;78.35;101738.66;4981443;28;45651;-76
2021/12/12 11:24:02;;;;;;;;;11.00;7.25;;;;;11.34;78.14;101747.47;4992342;28;46065;-77
2021/12/12 11:26:41;;;;;;;;;10.75;10.00;;;;;11.33;78.40;101744.84;4976166;28;45459;-76
2021/12/12 11:29:18;;;;;;;;;8.00;5.00;;;;;11.32;78.43;101746.59;5007857;28;45409;-75
2021/12/12 11:31:54;;;;;;;;;10.00;5.00;;;;;11.28;78.39;101749.25;5019703;28;45491;-77
2021/12/12 11:34:21;;;;;;;;;6.50;5.00;;;;;11.23;78.42;101746.63;5023853;28;45494;-76
2021/12/12 11:37:23;;;;;;;;;10.50;8.00;;;;;11.28;78.75;101743.97;5033670;28;45412;-86
2021/12/12 11:40:05;;;;;;;;;5.75;5.00;;;;;11.28;78.74;101742.22;5023887;28;45508;-77
2021/12/12 11:42:45;;;;;;;;;7.25;7.25;;;;;11.30;78.72;101734.28;5033457;28;45444;-77
2021/12/12 11:45:25;;;;;;;;;6.50;5.00;;;;;11.30;78.50;101735.16;5027646;28;45467;-76
2021/12/12 11:48:22;;;;;;;;;7.75;7.75;;;;;11.35;78.75;101728.03;4999183;28;45459;-76
2021/12/12 11:51:09;;;;;;;;;6.50;6.50;;;;;11.40;79.03;101738.59;5021697;28;45400;-77
2021/12/12 11:53:40;;;;;;;;;7.00;5.50;;;;;11.47;79.20;101734.19;5030680;28;45501;-76
2021/12/12 11:56:25;;;;;;;;;4.50;2.00;;;;;11.53;78.61;101735.00;5013577;28;45558;-75
2021/12/12 11:59:05;;;;;;;;;7.50;6.50;;;;;11.68;78.42;101731.41;5022430;28;45446;-78
2021/12/12 12:01:40;;;;;;;;;4.25;4.25;;;;;11.77;77.81;101733.13;5013717;28;45429;-77
2021/12/12 12:04:23;;;;;;;;;10.25;7.00;;;;;11.87;77.38;101724.22;5021833;28;45619;-77
2021/12/12 12:07:18;;;;;;;;;5.00;5.00;;;;;11.97;77.23;101730.34;5035794;28;46247;-78
2021/12/12 12:10:17;;;;;;;;;4.75;4.75;;;;;12.09;77.29;101729.38;5031749;28;45558;-78
2021/12/12 12:13:12;;;;;;;;;4.00;3.00;;;;;12.49;76.07;101728.16;5035724;28;45320;-83